Terminal Aerodrome Forecast
Issued by NWS Jackson, KY

Home | Current Version | Previous Version | Text Only | Print | Product List | Glossary On
Versions: 1 2 3 4 5 6 7 8 9 10
000
FTUS43 KJKL 221100
TAFJKL
TAF
KJKL 221126Z 2212/2312 12003KT P6SM OVC040
     FM221800 12004KT P6SM SCT050 BKN200
     FM230400 15004KT P6SM BKN080=

USA.gov is the U.S. government's official web portal to all federal, state and local government web resources and services.